createdAt,value
2022-08-22T00:02:47.662Z,61.17
2022-08-22T00:02:58.171Z,60.33
2022-08-22T06:13:23.585Z,48.04
2022-08-22T06:14:24.787Z,49.58
2022-08-22T06:15:24.244Z,50.18
2022-08-22T06:16:24.239Z,50.00
2022-08-22T06:17:24.303Z,50.74
2022-08-22T06:18:24.250Z,51.17
2022-08-22T06:19:24.181Z,51.77
2022-08-22T06:20:24.167Z,51.84
2022-08-22T06:21:24.207Z,50.68
2022-08-22T06:22:24.358Z,49.73
2022-08-22T06:23:24.240Z,49.33
2022-08-22T06:24:24.207Z,46.78
2022-08-22T06:25:24.308Z,45.82
2022-08-22T06:26:24.167Z,45.20
2022-08-22T06:27:24.334Z,47.10
2022-08-22T06:28:24.137Z,49.33
2022-08-22T06:37:35.307Z,47.57
2022-08-22T06:40:11.063Z,45.86
2022-08-22T06:41:10.913Z,46.16
2022-08-22T06:42:14.512Z,46.26
2022-08-22T06:43:10.117Z,45.84
2022-08-22T06:44:10.054Z,46.64
2022-08-22T06:45:10.042Z,45.34
2022-08-22T06:46:10.061Z,45.94
2022-08-22T06:47:10.023Z,45.08
2022-08-22T06:48:09.996Z,45.57
2022-08-22T06:49:10.003Z,47.13
2022-08-22T06:50:13.929Z,44.59
2022-08-22T06:51:10.010Z,43.00
2022-08-22T06:52:09.957Z,44.45
2022-08-22T06:53:09.945Z,44.37
2022-08-22T06:54:09.982Z,45.54
2022-08-22T06:55:09.932Z,48.36
2022-08-22T06:56:09.894Z,51.22
2022-08-22T06:57:09.893Z,54.02
2022-08-22T06:58:09.873Z,56.04
2022-08-22T06:59:09.895Z,56.39
2022-08-22T07:00:09.912Z,55.99
2022-08-22T07:01:12.388Z,55.54
2022-08-22T07:02:09.916Z,54.84
2022-08-22T07:03:09.863Z,54.52
2022-08-22T07:04:09.862Z,54.82
2022-08-22T07:05:09.810Z,55.27
2022-08-22T07:06:09.790Z,55.24
2022-08-22T07:07:09.872Z,55.17
2022-08-22T07:08:10.924Z,55.09
2022-08-22T07:09:10.972Z,54.98
2022-08-22T07:10:10.937Z,50.01
2022-08-22T07:11:10.892Z,46.76
2022-08-22T07:12:10.866Z,47.31
2022-08-22T07:13:10.866Z,45.57
2022-08-22T07:14:10.852Z,44.64
2022-08-22T07:15:10.889Z,44.70
2022-08-22T07:16:11.247Z,44.80
2022-08-22T07:21:02.243Z,47.41
2022-08-22T07:22:24.857Z,47.44
2022-08-22T07:23:01.313Z,45.71
2022-08-22T07:24:01.338Z,45.17
2022-08-22T07:25:01.232Z,46.97
2022-08-22T07:26:01.206Z,49.84
2022-08-22T07:29:42.456Z,54.11
2022-08-22T07:37:22.757Z,51.45
2022-08-22T07:38:23.890Z,50.85
2022-08-22T07:39:23.813Z,48.21
2022-08-22T07:40:23.821Z,45.68
2022-08-22T07:41:23.797Z,44.34
2022-08-22T07:42:26.512Z,44.02
2022-08-22T20:04:26.242Z,47.92
2022-08-22T20:05:27.211Z,47.92
2022-08-22T21:19:42.039Z,50.02
2022-08-22T21:20:44.276Z,50.54
2022-08-22T21:21:51.955Z,50.54
2022-08-22T21:41:19.623Z,52.17
2022-08-22T21:42:18.307Z,52.04
2022-08-22T21:43:17.766Z,50.74
2022-08-22T21:44:17.033Z,50.44
2022-08-22T21:45:17.076Z,52.07
2022-08-22T21:46:17.113Z,52.37
2022-08-22T21:47:17.218Z,51.84
2022-08-22T21:48:17.028Z,51.64
2022-08-22T21:49:17.094Z,51.87
2022-08-22T21:50:17.129Z,51.97
2022-08-22T21:51:16.892Z,51.87
2022-08-22T21:52:16.969Z,51.87
2022-08-22T21:53:16.981Z,52.27
2022-08-22T21:54:19.070Z,52.47
2022-08-22T21:55:16.924Z,51.77
2022-08-22T21:56:18.503Z,51.87
2022-08-22T21:57:18.253Z,51.37
2022-08-22T21:58:35.830Z,52.07
2022-08-22T21:59:18.174Z,53.09
2022-08-22T22:00:19.214Z,52.89
2022-08-22T22:01:18.335Z,52.57
2022-08-22T22:02:18.167Z,52.87
2022-08-22T22:03:19.489Z,53.67
